sensor_id;sensor_type;location;lat;lon;timestamp;pressure;altitude;pressure_sealevel;temperature;humidity
20019;BME280;10170;42.502;26.526;2022-11-23T00:01:24;98794.22;;;9.90;100.00
20019;BME280;10170;42.502;26.526;2022-11-23T00:03:54;98803.81;;;9.91;100.00
20019;BME280;10170;42.502;26.526;2022-11-23T00:06:22;98783.81;;;9.70;100.00
20019;BME280;10170;42.502;26.526;2022-11-23T00:08:50;98783.22;;;9.68;100.00
20019;BME280;10170;42.502;26.526;2022-11-23T00:11:18;98776.44;;;9.54;100.00
20019;BME280;10170;42.502;26.526;2022-11-23T00:13:45;98787.19;;;9.59;100.00
20019;BME280;10170;42.502;26.526;2022-11-23T00:16:17;98771.50;;;9.57;100.00
20019;BME280;10170;42.502;26.526;2022-11-23T00:18:44;98765.59;;;9.74;100.00
20019;BME280;10170;42.502;26.526;2022-11-23T00:21:14;98754.38;;;9.90;100.00
20019;BME280;10170;42.502;26.526;2022-11-23T00:23:41;98746.78;;;9.93;100.00
20019;BME280;10170;42.502;26.526;2022-11-23T00:26:09;98749.81;;;10.15;100.00
20019;BME280;10170;42.502;26.526;2022-11-23T00:28:36;98761.47;;;10.14;100.00
20019;BME280;10170;42.502;26.526;2022-11-23T00:31:05;98742.13;;;10.07;100.00
20019;BME280;10170;42.502;26.526;2022-11-23T00:33:33;98747.84;;;10.10;100.00
20019;BME280;10170;42.502;26.526;2022-11-23T00:36:02;98741.47;;;9.93;100.00
20019;BME280;10170;42.502;26.526;2022-11-23T00:38:29;98754.09;;;9.98;100.00
20019;BME280;10170;42.502;26.526;2022-11-23T00:41:01;98751.81;;;10.01;100.00
20019;BME280;10170;42.502;26.526;2022-11-23T00:43:29;98737.72;;;10.01;100.00
20019;BME280;10170;42.502;26.526;2022-11-23T00:46:14;98749.81;;;9.97;100.00
20019;BME280;10170;42.502;26.526;2022-11-23T00:48:42;98752.88;;;9.82;100.00
20019;BME280;10170;42.502;26.526;2022-11-23T00:51:11;98748.00;;;9.79;100.00
20019;BME280;10170;42.502;26.526;2022-11-23T00:53:38;98725.75;;;9.62;100.00
20019;BME280;10170;42.502;26.526;2022-11-23T00:56:05;98730.31;;;9.73;100.00
20019;BME280;10170;42.502;26.526;2022-11-23T00:58:33;98739.88;;;9.74;100.00
20019;BME280;10170;42.502;26.526;2022-11-23T01:01:11;98726.72;;;9.97;100.00
20019;BME280;10170;42.502;26.526;2022-11-23T01:03:40;98700.78;;;9.81;100.00
20019;BME280;10170;42.502;26.526;2022-11-23T01:06:13;98729.84;;;10.12;100.00
20019;BME280;10170;42.502;26.526;2022-11-23T01:08:42;98722.00;;;10.17;100.00
20019;BME280;10170;42.502;26.526;2022-11-23T01:11:11;98706.72;;;10.13;100.00
20019;BME280;10170;42.502;26.526;2022-11-23T01:13:39;98718.28;;;10.18;100.00
20019;BME280;10170;42.502;26.526;2022-11-23T01:16:10;98705.69;;;10.14;100.00
20019;BME280;10170;42.502;26.526;2022-11-23T01:18:39;98704.44;;;10.16;100.00
20019;BME280;10170;42.502;26.526;2022-11-23T01:21:06;98687.19;;;10.07;100.00
20019;BME280;10170;42.502;26.526;2022-11-23T01:23:32;98690.63;;;10.08;100.00
20019;BME280;10170;42.502;26.526;2022-11-23T01:26:06;98684.16;;;10.04;100.00
20019;BME280;10170;42.502;26.526;2022-11-23T01:28:34;98682.28;;;10.04;100.00
20019;BME280;10170;42.502;26.526;2022-11-23T01:31:12;98673.31;;;10.05;100.00
20019;BME280;10170;42.502;26.526;2022-11-23T01:33:40;98667.47;;;9.97;100.00
20019;BME280;10170;42.502;26.526;2022-11-23T01:36:11;98663.81;;;9.98;100.00
20019;BME280;10170;42.502;26.526;2022-11-23T01:38:39;98604.25;;;9.64;100.00
20019;BME280;10170;42.502;26.526;2022-11-23T01:41:08;98642.38;;;9.81;100.00
20019;BME280;10170;42.502;26.526;2022-11-23T01:43:36;98632.16;;;9.67;100.00
20019;BME280;10170;42.502;26.526;2022-11-23T01:46:03;98638.56;;;9.77;100.00
20019;BME280;10170;42.502;26.526;2022-11-23T01:48:39;98628.75;;;9.78;100.00
20019;BME280;10170;42.502;26.526;2022-11-23T01:51:13;98615.81;;;9.70;100.00
20019;BME280;10170;42.502;26.526;2022-11-23T01:53:41;98625.53;;;9.76;100.00
20019;BME280;10170;42.502;26.526;2022-11-23T01:56:13;98615.50;;;9.78;100.00
20019;BME280;10170;42.502;26.526;2022-11-23T01:58:45;98608.00;;;9.86;100.00
20019;BME280;10170;42.502;26.526;2022-11-23T02:01:13;98605.94;;;9.88;100.00
20019;BME280;10170;42.502;26.526;2022-11-23T02:03:41;98593.00;;;9.80;100.00
20019;BME280;10170;42.502;26.526;2022-11-23T02:06:14;98597.91;;;9.95;100.00
20019;BME280;10170;42.502;26.526;2022-11-23T02:08:42;98583.44;;;9.91;100.00
20019;BME280;10170;42.502;26.526;2022-11-23T02:11:11;98593.03;;;9.92;100.00
20019;BME280;10170;42.502;26.526;2022-11-23T02:13:38;98585.41;;;9.84;100.00
20019;BME280;10170;42.502;26.526;2022-11-23T02:16:06;98578.56;;;9.76;100.00
20019;BME280;10170;42.502;26.526;2022-11-23T02:18:34;98591.13;;;9.69;100.00
20019;BME280;10170;42.502;26.526;2022-11-23T02:21:03;98584.53;;;9.72;100.00
20019;BME280;10170;42.502;26.526;2022-11-23T02:26:04;98575.19;;;9.69;100.00
20019;BME280;10170;42.502;26.526;2022-11-23T02:28:36;98560.69;;;9.83;100.00
20019;BME280;10170;42.502;26.526;2022-11-23T02:31:04;98551.72;;;9.96;100.00
20019;BME280;10170;42.502;26.526;2022-11-23T02:33:31;98546.97;;;9.98;100.00
20019;BME280;10170;42.502;26.526;2022-11-23T02:36:00;98538.31;;;9.91;100.00
20019;BME280;10170;42.502;26.526;2022-11-23T02:38:29;98538.31;;;9.91;100.00
20019;BME280;10170;42.502;26.526;2022-11-23T02:40:58;98546.03;;;9.92;100.00
20019;BME280;10170;42.502;26.526;2022-11-23T02:43:24;98542.13;;;9.95;100.00
20019;BME280;10170;42.502;26.526;2022-11-23T02:45:54;98540.84;;;9.97;100.00
20019;BME280;10170;42.502;26.526;2022-11-23T02:48:21;98553.91;;;9.99;100.00
20019;BME280;10170;42.502;26.526;2022-11-23T02:50:48;98473.72;;;9.55;100.00
20019;BME280;10170;42.502;26.526;2022-11-23T02:53:16;98544.34;;;10.09;100.00
20019;BME280;10170;42.502;26.526;2022-11-23T02:55:43;98552.94;;;10.23;100.00
20019;BME280;10170;42.502;26.526;2022-11-23T02:58:10;98560.78;;;10.41;100.00
20019;BME280;10170;42.502;26.526;2022-11-23T03:00:37;98552.22;;;10.50;100.00
20019;BME280;10170;42.502;26.526;2022-11-23T03:03:04;98546.09;;;10.61;100.00
20019;BME280;10170;42.502;26.526;2022-11-23T03:05:30;98543.44;;;10.61;100.00
20019;BME280;10170;42.502;26.526;2022-11-23T03:07:57;98531.97;;;10.73;100.00
20019;BME280;10170;42.502;26.526;2022-11-23T03:10:24;98533.00;;;10.83;100.00
20019;BME280;10170;42.502;26.526;2022-11-23T03:12:53;98518.53;;;10.91;100.00
20019;BME280;10170;42.502;26.526;2022-11-23T03:15:21;98529.69;;;11.16;100.00
20019;BME280;10170;42.502;26.526;2022-11-23T03:17:48;98524.53;;;11.26;100.00
20019;BME280;10170;42.502;26.526;2022-11-23T03:20:15;98507.38;;;11.33;100.00
20019;BME280;10170;42.502;26.526;2022-11-23T03:22:42;98517.03;;;11.51;100.00
20019;BME280;10170;42.502;26.526;2022-11-23T03:25:08;98523.13;;;11.63;100.00
20019;BME280;10170;42.502;26.526;2022-11-23T03:27:37;98516.38;;;11.72;100.00
20019;BME280;10170;42.502;26.526;2022-11-23T03:30:05;98512.72;;;11.78;100.00
20019;BME280;10170;42.502;26.526;2022-11-23T03:32:33;98516.28;;;11.84;100.00
20019;BME280;10170;42.502;26.526;2022-11-23T03:35:00;98519.19;;;11.82;100.00
20019;BME280;10170;42.502;26.526;2022-11-23T03:37:27;98505.88;;;11.82;100.00
20019;BME280;10170;42.502;26.526;2022-11-23T03:39:54;98514.59;;;11.94;100.00
20019;BME280;10170;42.502;26.526;2022-11-23T03:42:20;98506.47;;;12.01;100.00
20019;BME280;10170;42.502;26.526;2022-11-23T03:44:47;98514.34;;;11.96;100.00
20019;BME280;10170;42.502;26.526;2022-11-23T03:47:14;98513.47;;;12.07;100.00
20019;BME280;10170;42.502;26.526;2022-11-23T03:49:40;98519.03;;;12.05;100.00
20019;BME280;10170;42.502;26.526;2022-11-23T03:52:07;98504.59;;;12.01;100.00
20019;BME280;10170;42.502;26.526;2022-11-23T03:54:34;98465.88;;;11.77;100.00
20019;BME280;10170;42.502;26.526;2022-11-23T03:57:00;98500.63;;;12.04;100.00
20019;BME280;10170;42.502;26.526;2022-11-23T03:59:27;98504.91;;;12.05;100.00
20019;BME280;10170;42.502;26.526;2022-11-23T04:01:54;98492.91;;;12.02;100.00
20019;BME280;10170;42.502;26.526;2022-11-23T04:04:21;98509.53;;;12.09;100.00
20019;BME280;10170;42.502;26.526;2022-11-23T04:06:47;98508.06;;;12.18;100.00
20019;BME280;10170;42.502;26.526;2022-11-23T04:09:14;98499.16;;;12.29;100.00
20019;BME280;10170;42.502;26.526;2022-11-23T04:11:41;98497.22;;;12.08;100.00
20019;BME280;10170;42.502;26.526;2022-11-23T04:14:07;98490.63;;;12.11;100.00
20019;BME280;10170;42.502;26.526;2022-11-23T04:16:34;98490.63;;;12.11;100.00
20019;BME280;10170;42.502;26.526;2022-11-23T04:19:01;98494.09;;;12.11;100.00
20019;BME280;10170;42.502;26.526;2022-11-23T04:21:27;98495.78;;;12.17;100.00
20019;BME280;10170;42.502;26.526;2022-11-23T04:23:54;98489.16;;;12.03;100.00
20019;BME280;10170;42.502;26.526;2022-11-23T04:26:21;98488.28;;;12.14;100.00
20019;BME280;10170;42.502;26.526;2022-11-23T04:28:47;98480.78;;;12.11;100.00
20019;BME280;10170;42.502;26.526;2022-11-23T04:31:14;98450.75;;;11.99;100.00
20019;BME280;10170;42.502;26.526;2022-11-23T04:33:41;98475.34;;;12.23;100.00
20019;BME280;10170;42.502;26.526;2022-11-23T04:36:08;98474.13;;;12.14;100.00
20019;BME280;10170;42.502;26.526;2022-11-23T04:38:35;98480.34;;;12.19;100.00
20019;BME280;10170;42.502;26.526;2022-11-23T04:41:02;98472.66;;;12.23;100.00
20019;BME280;10170;42.502;26.526;2022-11-23T04:43:29;98467.84;;;12.20;100.00
20019;BME280;10170;42.502;26.526;2022-11-23T04:45:57;98472.09;;;12.21;100.00
20019;BME280;10170;42.502;26.526;2022-11-23T04:48:23;98456.22;;;12.09;100.00
20019;BME280;10170;42.502;26.526;2022-11-23T04:50:50;98468.03;;;12.13;100.00
20019;BME280;10170;42.502;26.526;2022-11-23T04:53:21;98465.94;;;12.15;100.00
20019;BME280;10170;42.502;26.526;2022-11-23T04:55:48;98466.47;;;12.17;100.00
20019;BME280;10170;42.502;26.526;2022-11-23T04:58:14;98460.16;;;12.23;100.00
20019;BME280;10170;42.502;26.526;2022-11-23T05:00:41;98454.25;;;12.21;100.00
20019;BME280;10170;42.502;26.526;2022-11-23T05:03:08;98442.31;;;12.24;100.00
20019;BME280;10170;42.502;26.526;2022-11-23T05:05:39;98454.19;;;12.33;100.00
20019;BME280;10170;42.502;26.526;2022-11-23T05:08:06;98449.16;;;12.36;100.00
20019;BME280;10170;42.502;26.526;2022-11-23T05:10:33;98448.53;;;12.29;100.00
20019;BME280;10170;42.502;26.526;2022-11-23T05:13:00;98441.09;;;12.31;100.00
20019;BME280;10170;42.502;26.526;2022-11-23T05:15:27;98430.19;;;12.33;100.00
20019;BME280;10170;42.502;26.526;2022-11-23T05:18:02;98431.25;;;12.53;100.00
20019;BME280;10170;42.502;26.526;2022-11-23T05:20:29;98414.19;;;12.33;100.00
20019;BME280;10170;42.502;26.526;2022-11-23T05:22:56;98417.13;;;12.31;100.00
20019;BME280;10170;42.502;26.526;2022-11-23T05:25:24;98416.56;;;12.29;100.00
20019;BME280;10170;42.502;26.526;2022-11-23T05:27:51;98417.75;;;12.38;100.00
20019;BME280;10170;42.502;26.526;2022-11-23T05:30:18;98419.28;;;12.34;100.00
20019;BME280;10170;42.502;26.526;2022-11-23T05:32:45;98405.75;;;12.19;100.00
20019;BME280;10170;42.502;26.526;2022-11-23T05:35:12;98424.81;;;12.11;100.00
20019;BME280;10170;42.502;26.526;2022-11-23T05:37:39;98425.41;;;12.13;100.00
20019;BME280;10170;42.502;26.526;2022-11-23T05:40:07;98426.84;;;12.04;100.00
20019;BME280;10170;42.502;26.526;2022-11-23T05:42:34;98434.69;;;11.94;100.00
20019;BME280;10170;42.502;26.526;2022-11-23T05:45:01;98433.59;;;11.90;100.00
20019;BME280;10170;42.502;26.526;2022-11-23T05:47:32;98438.09;;;11.90;100.00
20019;BME280;10170;42.502;26.526;2022-11-23T05:49:59;98433.97;;;11.82;100.00
20019;BME280;10170;42.502;26.526;2022-11-23T05:52:26;98430.72;;;12.13;100.00
20019;BME280;10170;42.502;26.526;2022-11-23T05:54:53;98425.03;;;12.26;100.00
20019;BME280;10170;42.502;26.526;2022-11-23T05:57:19;98412.72;;;12.04;100.00
20019;BME280;10170;42.502;26.526;2022-11-23T05:59:47;98367.84;;;11.74;100.00
20019;BME280;10170;42.502;26.526;2022-11-23T06:02:15;98428.13;;;12.18;100.00
20019;BME280;10170;42.502;26.526;2022-11-23T06:04:42;98420.97;;;12.40;100.00
20019;BME280;10170;42.502;26.526;2022-11-23T06:07:08;98429.78;;;12.24;100.00
20019;BME280;10170;42.502;26.526;2022-11-23T06:09:35;98408.09;;;12.16;100.00
20019;BME280;10170;42.502;26.526;2022-11-23T06:12:02;98421.31;;;12.27;100.00
20019;BME280;10170;42.502;26.526;2022-11-23T06:14:29;98412.31;;;12.33;100.00
20019;BME280;10170;42.502;26.526;2022-11-23T06:16:56;98403.53;;;12.33;100.00
20019;BME280;10170;42.502;26.526;2022-11-23T06:19:22;98374.41;;;11.88;100.00
20019;BME280;10170;42.502;26.526;2022-11-23T06:21:49;98407.75;;;12.29;100.00
20019;BME280;10170;42.502;26.526;2022-11-23T06:24:16;98395.69;;;12.26;100.00
20019;BME280;10170;42.502;26.526;2022-11-23T06:26:42;98392.47;;;12.24;100.00
20019;BME280;10170;42.502;26.526;2022-11-23T06:29:09;98400.81;;;12.28;100.00
20019;BME280;10170;42.502;26.526;2022-11-23T06:31:36;98383.19;;;12.27;100.00
20019;BME280;10170;42.502;26.526;2022-11-23T06:34:02;98393.19;;;12.36;100.00
20019;BME280;10170;42.502;26.526;2022-11-23T06:36:29;98381.03;;;12.45;100.00
20019;BME280;10170;42.502;26.526;2022-11-23T06:38:56;98386.78;;;12.37;100.00
20019;BME280;10170;42.502;26.526;2022-11-23T06:41:23;98378.22;;;12.35;100.00
20019;BME280;10170;42.502;26.526;2022-11-23T06:43:57;98379.28;;;12.34;100.00
20019;BME280;10170;42.502;26.526;2022-11-23T06:46:24;98380.84;;;12.30;100.00
20019;BME280;10170;42.502;26.526;2022-11-23T06:48:50;98384.94;;;12.38;100.00
20019;BME280;10170;42.502;26.526;2022-11-23T06:51:17;98383.94;;;12.44;100.00
20019;BME280;10170;42.502;26.526;2022-11-23T06:53:44;98380.78;;;12.47;100.00
20019;BME280;10170;42.502;26.526;2022-11-23T06:56:10;98379.97;;;12.46;100.00
20019;BME280;10170;42.502;26.526;2022-11-23T06:58:37;98369.25;;;12.41;100.00
20019;BME280;10170;42.502;26.526;2022-11-23T07:01:06;98389.66;;;12.52;100.00
20019;BME280;10170;42.502;26.526;2022-11-23T07:03:33;98399.25;;;12.53;100.00
20019;BME280;10170;42.502;26.526;2022-11-23T07:06:08;98402.06;;;12.42;100.00
20019;BME280;10170;42.502;26.526;2022-11-23T07:08:36;98377.88;;;12.27;100.00
20019;BME280;10170;42.502;26.526;2022-11-23T07:11:10;98399.06;;;12.38;100.00
20019;BME280;10170;42.502;26.526;2022-11-23T07:13:37;98395.28;;;12.34;100.00
20019;BME280;10170;42.502;26.526;2022-11-23T07:16:05;98381.72;;;12.36;100.00
20019;BME280;10170;42.502;26.526;2022-11-23T07:18:32;98389.91;;;12.51;100.00
20019;BME280;10170;42.502;26.526;2022-11-23T07:20:59;98398.88;;;12.66;100.00
20019;BME280;10170;42.502;26.526;2022-11-23T07:23:26;98396.25;;;12.71;100.00
20019;BME280;10170;42.502;26.526;2022-11-23T07:25:52;98396.69;;;12.85;100.00
20019;BME280;10170;42.502;26.526;2022-11-23T07:28:19;98404.22;;;12.93;100.00
20019;BME280;10170;42.502;26.526;2022-11-23T07:30:49;98406.09;;;12.93;100.00
20019;BME280;10170;42.502;26.526;2022-11-23T07:33:16;98405.38;;;13.24;100.00
20019;BME280;10170;42.502;26.526;2022-11-23T07:35:42;98407.25;;;13.28;100.00
20019;BME280;10170;42.502;26.526;2022-11-23T07:38:09;98396.72;;;13.12;100.00
20019;BME280;10170;42.502;26.526;2022-11-23T07:40:37;98406.78;;;13.05;100.00
20019;BME280;10170;42.502;26.526;2022-11-23T07:43:05;98409.72;;;12.82;100.00
20019;BME280;10170;42.502;26.526;2022-11-23T07:45:32;98417.47;;;13.05;100.00
20019;BME280;10170;42.502;26.526;2022-11-23T07:48:07;98413.22;;;13.09;100.00
20019;BME280;10170;42.502;26.526;2022-11-23T07:50:36;98419.22;;;13.21;100.00
20019;BME280;10170;42.502;26.526;2022-11-23T07:53:04;98407.88;;;13.35;100.00
20019;BME280;10170;42.502;26.526;2022-11-23T07:55:32;98415.34;;;13.65;100.00
20019;BME280;10170;42.502;26.526;2022-11-23T07:57:59;98408.75;;;13.77;100.00
20019;BME280;10170;42.502;26.526;2022-11-23T08:00:27;98411.78;;;13.91;100.00
20019;BME280;10170;42.502;26.526;2022-11-23T08:02:56;98392.63;;;14.04;100.00
20019;BME280;10170;42.502;26.526;2022-11-23T08:05:44;98407.69;;;14.20;100.00
20019;BME280;10170;42.502;26.526;2022-11-23T08:08:11;98403.41;;;14.19;100.00
20019;BME280;10170;42.502;26.526;2022-11-23T08:10:38;98391.09;;;14.23;100.00
20019;BME280;10170;42.502;26.526;2022-11-23T08:13:12;98383.09;;;14.23;100.00
20019;BME280;10170;42.502;26.526;2022-11-23T08:15:39;98384.50;;;14.31;100.00
20019;BME280;10170;42.502;26.526;2022-11-23T08:18:06;98384.56;;;14.46;100.00
20019;BME280;10170;42.502;26.526;2022-11-23T08:20:32;98384.56;;;14.41;100.00
20019;BME280;10170;42.502;26.526;2022-11-23T08:22:59;98381.06;;;14.35;100.00
20019;BME280;10170;42.502;26.526;2022-11-23T08:25:27;98370.94;;;14.42;100.00
20019;BME280;10170;42.502;26.526;2022-11-23T08:28:02;98362.88;;;14.37;100.00
20019;BME280;10170;42.502;26.526;2022-11-23T08:30:30;98365.03;;;14.40;100.00
20019;BME280;10170;42.502;26.526;2022-11-23T08:33:02;98369.84;;;14.43;100.00
20019;BME280;10170;42.502;26.526;2022-11-23T08:35:32;98354.63;;;14.49;100.00
20019;BME280;10170;42.502;26.526;2022-11-23T08:38:00;98360.25;;;14.47;100.00
20019;BME280;10170;42.502;26.526;2022-11-23T08:40:26;98361.81;;;14.43;100.00
20019;BME280;10170;42.502;26.526;2022-11-23T08:42:54;98362.09;;;14.47;100.00
20019;BME280;10170;42.502;26.526;2022-11-23T08:45:20;98351.94;;;14.49;100.00
20019;BME280;10170;42.502;26.526;2022-11-23T08:47:47;98347.69;;;14.53;100.00
20019;BME280;10170;42.502;26.526;2022-11-23T08:50:14;98358.13;;;14.59;100.00
20019;BME280;10170;42.502;26.526;2022-11-23T08:52:41;98371.00;;;14.67;100.00
20019;BME280;10170;42.502;26.526;2022-11-23T08:55:08;98362.72;;;14.64;100.00
20019;BME280;10170;42.502;26.526;2022-11-23T08:57:35;98370.47;;;14.65;100.00
20019;BME280;10170;42.502;26.526;2022-11-23T09:00:04;98383.03;;;14.65;100.00
20019;BME280;10170;42.502;26.526;2022-11-23T09:02:31;98373.69;;;14.62;100.00
20019;BME280;10170;42.502;26.526;2022-11-23T09:04:57;98363.22;;;14.56;100.00
20019;BME280;10170;42.502;26.526;2022-11-23T09:07:24;98374.16;;;14.49;100.00
20019;BME280;10170;42.502;26.526;2022-11-23T09:09:51;98379.78;;;14.53;100.00
20019;BME280;10170;42.502;26.526;2022-11-23T09:12:17;98390.19;;;14.39;100.00
20019;BME280;10170;42.502;26.526;2022-11-23T09:14:44;98390.81;;;14.20;100.00
20019;BME280;10170;42.502;26.526;2022-11-23T09:17:11;98421.47;;;14.02;100.00
20019;BME280;10170;42.502;26.526;2022-11-23T09:19:37;98426.03;;;13.65;100.00
20019;BME280;10170;42.502;26.526;2022-11-23T09:22:04;98403.63;;;13.39;100.00
20019;BME280;10170;42.502;26.526;2022-11-23T09:24:31;98384.00;;;13.24;100.00
20019;BME280;10170;42.502;26.526;2022-11-23T09:26:58;98383.34;;;13.07;100.00
20019;BME280;10170;42.502;26.526;2022-11-23T09:29:25;98381.72;;;13.06;100.00
20019;BME280;10170;42.502;26.526;2022-11-23T09:31:52;98374.94;;;12.98;100.00
20019;BME280;10170;42.502;26.526;2022-11-23T09:34:18;98331.22;;;12.73;100.00
20019;BME280;10170;42.502;26.526;2022-11-23T09:36:46;98354.44;;;12.77;100.00
20019;BME280;10170;42.502;26.526;2022-11-23T09:39:13;98362.66;;;12.70;100.00
20019;BME280;10170;42.502;26.526;2022-11-23T09:42:04;98349.56;;;12.69;100.00
20019;BME280;10170;42.502;26.526;2022-11-23T09:50:34;98345.97;;;12.58;100.00
20019;BME280;10170;42.502;26.526;2022-11-23T09:53:12;98347.38;;;12.66;100.00
20019;BME280;10170;42.502;26.526;2022-11-23T09:55:47;98332.22;;;12.66;100.00
20019;BME280;10170;42.502;26.526;2022-11-23T09:58:16;98337.75;;;12.60;100.00
20019;BME280;10170;42.502;26.526;2022-11-23T10:00:54;98353.03;;;12.69;100.00
20019;BME280;10170;42.502;26.526;2022-11-23T10:03:26;98342.72;;;12.78;100.00
20019;BME280;10170;42.502;26.526;2022-11-23T10:06:03;98338.75;;;12.81;100.00
20019;BME280;10170;42.502;26.526;2022-11-23T10:08:39;98338.81;;;12.91;100.00
20019;BME280;10170;42.502;26.526;2022-11-23T10:14:12;98335.72;;;12.99;100.00
20019;BME280;10170;42.502;26.526;2022-11-23T10:22:42;98343.94;;;13.19;100.00
20019;BME280;10170;42.502;26.526;2022-11-23T10:25:21;98336.59;;;13.36;100.00
20019;BME280;10170;42.502;26.526;2022-11-23T10:27:51;98329.97;;;13.43;100.00
20019;BME280;10170;42.502;26.526;2022-11-23T10:30:20;98333.22;;;13.50;100.00
20019;BME280;10170;42.502;26.526;2022-11-23T10:32:59;98330.75;;;13.39;100.00
20019;BME280;10170;42.502;26.526;2022-11-23T10:35:32;98336.91;;;13.44;100.00
20019;BME280;10170;42.502;26.526;2022-11-23T10:38:11;98326.03;;;13.51;100.00
20019;BME280;10170;42.502;26.526;2022-11-23T10:43:23;98329.97;;;13.43;100.00
20019;BME280;10170;42.502;26.526;2022-11-23T10:45:50;98339.09;;;13.47;100.00
20019;BME280;10170;42.502;26.526;2022-11-23T10:48:35;98341.53;;;13.54;100.00
20019;BME280;10170;42.502;26.526;2022-11-23T10:51:26;98332.69;;;13.48;100.00
20019;BME280;10170;42.502;26.526;2022-11-23T10:54:00;98358.03;;;13.46;100.00
20019;BME280;10170;42.502;26.526;2022-11-23T10:56:32;98335.31;;;13.43;100.00
20019;BME280;10170;42.502;26.526;2022-11-23T10:58:59;98337.19;;;13.43;100.00
20019;BME280;10170;42.502;26.526;2022-11-23T11:01:27;98326.03;;;13.51;100.00
20019;BME280;10170;42.502;26.526;2022-11-23T11:04:01;98341.75;;;13.47;100.00
20019;BME280;10170;42.502;26.526;2022-11-23T11:06:31;98346.88;;;13.54;100.00
20019;BME280;10170;42.502;26.526;2022-11-23T11:09:04;98342.66;;;13.63;100.00
20019;BME280;10170;42.502;26.526;2022-11-23T11:11:47;98349.63;;;13.64;100.00
20019;BME280;10170;42.502;26.526;2022-11-23T11:14:19;98349.09;;;13.67;100.00
20019;BME280;10170;42.502;26.526;2022-11-23T11:16:53;98345.06;;;13.64;100.00
20019;BME280;10170;42.502;26.526;2022-11-23T11:19:34;98354.72;;;13.65;100.00
20019;BME280;10170;42.502;26.526;2022-11-23T11:22:11;98353.38;;;13.68;100.00
20019;BME280;10170;42.502;26.526;2022-11-23T11:24:50;98346.63;;;13.55;100.00
20019;BME280;10170;42.502;26.526;2022-11-23T11:27:20;98352.44;;;13.47;100.00
20019;BME280;10170;42.502;26.526;2022-11-23T11:29:51;98356.25;;;13.56;100.00
20019;BME280;10170;42.502;26.526;2022-11-23T11:38:19;98355.31;;;13.77;100.00
20019;BME280;10170;42.502;26.526;2022-11-23T11:40:50;98364.16;;;13.83;100.00
20019;BME280;10170;42.502;26.526;2022-11-23T11:43:27;98364.47;;;13.87;100.00
20019;BME280;10170;42.502;26.526;2022-11-23T11:46:12;98366.56;;;13.80;100.00
20019;BME280;10170;42.502;26.526;2022-11-23T11:51:44;98356.13;;;13.78;100.00
20019;BME280;10170;42.502;26.526;2022-11-23T11:56:44;98358.22;;;13.71;100.00
20019;BME280;10170;42.502;26.526;2022-11-23T11:59:15;98360.34;;;13.69;100.00
20019;BME280;10170;42.502;26.526;2022-11-23T12:07:23;98371.13;;;13.84;100.00
20019;BME280;10170;42.502;26.526;2022-11-23T12:09:59;98367.09;;;13.77;100.00
20019;BME280;10170;42.502;26.526;2022-11-23T12:12:27;98363.63;;;13.81;100.00
20019;BME280;10170;42.502;26.526;2022-11-23T12:14:55;98366.03;;;13.83;100.00
20019;BME280;10170;42.502;26.526;2022-11-23T12:20:24;98382.28;;;13.76;100.00
20019;BME280;10170;42.502;26.526;2022-11-23T12:25:37;98375.38;;;13.80;100.00
20019;BME280;10170;42.502;26.526;2022-11-23T12:33:58;98381.22;;;13.77;100.00
20019;BME280;10170;42.502;26.526;2022-11-23T12:42:11;98380.53;;;13.92;100.00
20019;BME280;10170;42.502;26.526;2022-11-23T12:53:00;98370.72;;;14.07;100.00
20019;BME280;10170;42.502;26.526;2022-11-23T12:58:29;98375.16;;;14.28;100.00
20019;BME280;10170;42.502;26.526;2022-11-23T13:03:53;98366.47;;;14.16;100.00
20019;BME280;10170;42.502;26.526;2022-11-23T13:12:20;98377.84;;;14.33;100.00
20019;BME280;10170;42.502;26.526;2022-11-23T13:23:17;98385.34;;;14.36;100.00
20019;BME280;10170;42.502;26.526;2022-11-23T13:26:13;98396.59;;;14.48;100.00
20019;BME280;10170;42.502;26.526;2022-11-23T13:28:40;98390.75;;;14.51;100.00
20019;BME280;10170;42.502;26.526;2022-11-23T13:33:43;98390.19;;;14.39;100.00
20019;BME280;10170;42.502;26.526;2022-11-23T13:36:35;98390.75;;;14.51;100.00
20019;BME280;10170;42.502;26.526;2022-11-23T13:42:17;98392.59;;;14.46;100.00
20019;BME280;10170;42.502;26.526;2022-11-23T13:44:44;98392.63;;;14.51;100.00
20019;BME280;10170;42.502;26.526;2022-11-23T13:49:48;98401.94;;;14.48;100.00
20019;BME280;10170;42.502;26.526;2022-11-23T13:57:41;98408.69;;;14.56;100.00
20019;BME280;10170;42.502;26.526;2022-11-23T14:11:41;98418.34;;;14.62;100.00
20019;BME280;10170;42.502;26.526;2022-11-23T14:14:18;98424.44;;;14.52;100.00
20019;BME280;10170;42.502;26.526;2022-11-23T14:41:41;98437.84;;;14.57;100.00
20019;BME280;10170;42.502;26.526;2022-11-23T14:44:12;98433.31;;;14.63;100.00
20019;BME280;10170;42.502;26.526;2022-11-23T14:47:06;98427.66;;;14.49;100.00
20019;BME280;10170;42.502;26.526;2022-11-23T14:49:35;98430.84;;;14.46;100.00
20019;BME280;10170;42.502;26.526;2022-11-23T14:52:03;98426.78;;;14.34;100.00
20019;BME280;10170;42.502;26.526;2022-11-23T14:54:31;98434.59;;;14.45;100.00
20019;BME280;10170;42.502;26.526;2022-11-23T14:57:01;98438.06;;;14.41;100.00
20019;BME280;10170;42.502;26.526;2022-11-23T14:59:37;98435.03;;;14.32;100.00
20019;BME280;10170;42.502;26.526;2022-11-23T15:02:16;98440.31;;;14.22;100.00
20019;BME280;10170;42.502;26.526;2022-11-23T15:05:01;98431.94;;;14.09;100.00